sensor_id;sensor_type;location;lat;lon;timestamp;temperature;humidity
49829;DHT22;35723;51.194;5.112;2023-04-06T00:00:56;6.50;99.90
49829;DHT22;35723;51.194;5.112;2023-04-06T00:03:22;6.40;99.90
49829;DHT22;35723;51.194;5.112;2023-04-06T00:05:48;6.40;99.90
49829;DHT22;35723;51.194;5.112;2023-04-06T00:08:14;6.50;99.90
49829;DHT22;35723;51.194;5.112;2023-04-06T00:10:39;6.40;99.90
49829;DHT22;35723;51.194;5.112;2023-04-06T00:13:06;6.40;99.90
49829;DHT22;35723;51.194;5.112;2023-04-06T00:15:33;6.50;99.90
49829;DHT22;35723;51.194;5.112;2023-04-06T00:17:58;6.50;99.90
49829;DHT22;35723;51.194;5.112;2023-04-06T00:20:24;6.50;99.90
49829;DHT22;35723;51.194;5.112;2023-04-06T00:22:50;6.60;99.90
49829;DHT22;35723;51.194;5.112;2023-04-06T00:25:16;6.70;99.90
49829;DHT22;35723;51.194;5.112;2023-04-06T00:27:42;6.70;99.90
49829;DHT22;35723;51.194;5.112;2023-04-06T00:30:08;6.60;99.90
49829;DHT22;35723;51.194;5.112;2023-04-06T00:32:35;6.60;99.90
49829;DHT22;35723;51.194;5.112;2023-04-06T00:35:05;6.60;99.90
49829;DHT22;35723;51.194;5.112;2023-04-06T00:37:31;6.50;99.90
49829;DHT22;35723;51.194;5.112;2023-04-06T00:39:58;6.50;99.90
49829;DHT22;35723;51.194;5.112;2023-04-06T00:42:24;6.40;99.90
49829;DHT22;35723;51.194;5.112;2023-04-06T00:44:58;6.60;99.90
49829;DHT22;35723;51.194;5.112;2023-04-06T00:47:25;6.30;99.90
49829;DHT22;35723;51.194;5.112;2023-04-06T00:49:54;6.30;99.90
49829;DHT22;35723;51.194;5.112;2023-04-06T00:52:20;6.30;99.90
49829;DHT22;35723;51.194;5.112;2023-04-06T00:54:47;6.30;99.90
49829;DHT22;35723;51.194;5.112;2023-04-06T00:57:13;6.30;99.90
49829;DHT22;35723;51.194;5.112;2023-04-06T00:59:41;6.30;99.90
49829;DHT22;35723;51.194;5.112;2023-04-06T01:02:08;6.30;99.90
49829;DHT22;35723;51.194;5.112;2023-04-06T01:04:34;6.00;99.90
49829;DHT22;35723;51.194;5.112;2023-04-06T01:07:00;6.30;99.90
49829;DHT22;35723;51.194;5.112;2023-04-06T01:09:30;6.20;99.90
49829;DHT22;35723;51.194;5.112;2023-04-06T01:11:57;6.10;99.90
49829;DHT22;35723;51.194;5.112;2023-04-06T01:14:24;6.30;99.90
49829;DHT22;35723;51.194;5.112;2023-04-06T01:16:50;6.40;99.90
49829;DHT22;35723;51.194;5.112;2023-04-06T01:19:16;6.40;99.90
49829;DHT22;35723;51.194;5.112;2023-04-06T01:21:42;6.40;99.90
49829;DHT22;35723;51.194;5.112;2023-04-06T01:24:08;6.40;99.90
49829;DHT22;35723;51.194;5.112;2023-04-06T01:26:35;6.40;99.90
49829;DHT22;35723;51.194;5.112;2023-04-06T01:29:02;6.40;99.90
49829;DHT22;35723;51.194;5.112;2023-04-06T01:31:28;6.40;99.90
49829;DHT22;35723;51.194;5.112;2023-04-06T01:33:55;6.30;99.90
49829;DHT22;35723;51.194;5.112;2023-04-06T01:36:21;6.50;99.90
49829;DHT22;35723;51.194;5.112;2023-04-06T01:38:47;6.30;99.90
49829;DHT22;35723;51.194;5.112;2023-04-06T01:41:12;6.40;99.90
49829;DHT22;35723;51.194;5.112;2023-04-06T01:43:38;6.50;99.90
49829;DHT22;35723;51.194;5.112;2023-04-06T01:46:04;6.50;99.90
49829;DHT22;35723;51.194;5.112;2023-04-06T01:48:30;6.60;99.90
49829;DHT22;35723;51.194;5.112;2023-04-06T01:50:56;6.60;99.90
49829;DHT22;35723;51.194;5.112;2023-04-06T01:53:22;6.60;99.90
49829;DHT22;35723;51.194;5.112;2023-04-06T01:55:48;6.70;99.90
49829;DHT22;35723;51.194;5.112;2023-04-06T01:58:13;6.80;99.90
49829;DHT22;35723;51.194;5.112;2023-04-06T02:00:40;6.70;99.90
49829;DHT22;35723;51.194;5.112;2023-04-06T02:03:06;6.80;99.90
49829;DHT22;35723;51.194;5.112;2023-04-06T02:05:32;6.90;99.90
49829;DHT22;35723;51.194;5.112;2023-04-06T02:08:06;6.90;99.90
49829;DHT22;35723;51.194;5.112;2023-04-06T02:10:33;7.00;99.90
49829;DHT22;35723;51.194;5.112;2023-04-06T02:12:59;7.00;99.90
49829;DHT22;35723;51.194;5.112;2023-04-06T02:15:25;7.00;99.90
49829;DHT22;35723;51.194;5.112;2023-04-06T02:17:51;7.00;99.90
49829;DHT22;35723;51.194;5.112;2023-04-06T02:20:17;7.00;99.90
49829;DHT22;35723;51.194;5.112;2023-04-06T02:22:43;7.10;99.90
49829;DHT22;35723;51.194;5.112;2023-04-06T02:25:09;7.00;99.90
49829;DHT22;35723;51.194;5.112;2023-04-06T02:27:35;6.90;99.90
49829;DHT22;35723;51.194;5.112;2023-04-06T02:30:02;6.90;99.90
49829;DHT22;35723;51.194;5.112;2023-04-06T02:32:27;7.00;99.90
49829;DHT22;35723;51.194;5.112;2023-04-06T02:34:53;7.10;99.90
49829;DHT22;35723;51.194;5.112;2023-04-06T02:37:19;7.10;99.90
49829;DHT22;35723;51.194;5.112;2023-04-06T02:39:45;7.10;99.90
49829;DHT22;35723;51.194;5.112;2023-04-06T02:42:10;7.10;99.90
49829;DHT22;35723;51.194;5.112;2023-04-06T02:44:36;7.20;99.90
49829;DHT22;35723;51.194;5.112;2023-04-06T02:47:02;7.20;99.90
49829;DHT22;35723;51.194;5.112;2023-04-06T02:49:27;7.10;99.90
49829;DHT22;35723;51.194;5.112;2023-04-06T02:51:53;7.20;99.90
49829;DHT22;35723;51.194;5.112;2023-04-06T02:54:19;7.20;99.90
49829;DHT22;35723;51.194;5.112;2023-04-06T02:56:45;7.20;99.90
49829;DHT22;35723;51.194;5.112;2023-04-06T02:59:10;7.20;99.90
49829;DHT22;35723;51.194;5.112;2023-04-06T03:01:36;7.10;99.90
49829;DHT22;35723;51.194;5.112;2023-04-06T03:04:02;7.20;99.90
49829;DHT22;35723;51.194;5.112;2023-04-06T03:06:28;7.20;99.90
49829;DHT22;35723;51.194;5.112;2023-04-06T03:08:54;7.20;99.90
49829;DHT22;35723;51.194;5.112;2023-04-06T03:11:19;7.30;99.90
49829;DHT22;35723;51.194;5.112;2023-04-06T03:13:46;7.30;99.90
49829;DHT22;35723;51.194;5.112;2023-04-06T03:16:11;7.20;99.90
49829;DHT22;35723;51.194;5.112;2023-04-06T03:18:37;7.20;99.90
49829;DHT22;35723;51.194;5.112;2023-04-06T03:21:03;7.20;99.90
49829;DHT22;35723;51.194;5.112;2023-04-06T03:23:28;7.20;99.90
49829;DHT22;35723;51.194;5.112;2023-04-06T03:25:54;7.10;99.90
49829;DHT22;35723;51.194;5.112;2023-04-06T03:28:20;7.20;99.90
49829;DHT22;35723;51.194;5.112;2023-04-06T03:30:46;7.30;99.90
49829;DHT22;35723;51.194;5.112;2023-04-06T03:33:11;7.30;99.90
49829;DHT22;35723;51.194;5.112;2023-04-06T03:35:37;7.30;99.90
49829;DHT22;35723;51.194;5.112;2023-04-06T03:38:04;7.30;99.90
49829;DHT22;35723;51.194;5.112;2023-04-06T03:40:30;7.30;99.90
49829;DHT22;35723;51.194;5.112;2023-04-06T03:42:56;7.30;99.90
49829;DHT22;35723;51.194;5.112;2023-04-06T03:45:22;7.30;99.90
49829;DHT22;35723;51.194;5.112;2023-04-06T03:47:48;7.30;99.90
49829;DHT22;35723;51.194;5.112;2023-04-06T03:50:14;7.30;99.90
49829;DHT22;35723;51.194;5.112;2023-04-06T03:52:39;7.40;99.90
49829;DHT22;35723;51.194;5.112;2023-04-06T03:55:06;7.40;99.90
49829;DHT22;35723;51.194;5.112;2023-04-06T03:57:32;7.40;99.90
49829;DHT22;35723;51.194;5.112;2023-04-06T03:59:58;7.40;99.90
49829;DHT22;35723;51.194;5.112;2023-04-06T04:02:25;7.40;99.90
49829;DHT22;35723;51.194;5.112;2023-04-06T04:04:51;7.40;99.90
49829;DHT22;35723;51.194;5.112;2023-04-06T04:07:16;7.40;99.90
49829;DHT22;35723;51.194;5.112;2023-04-06T04:09:42;7.40;99.90
49829;DHT22;35723;51.194;5.112;2023-04-06T04:12:07;7.40;99.90
49829;DHT22;35723;51.194;5.112;2023-04-06T04:14:33;7.40;99.90
49829;DHT22;35723;51.194;5.112;2023-04-06T04:16:59;7.40;99.90
49829;DHT22;35723;51.194;5.112;2023-04-06T04:19:24;7.40;99.90
49829;DHT22;35723;51.194;5.112;2023-04-06T04:21:50;7.40;99.90
49829;DHT22;35723;51.194;5.112;2023-04-06T04:24:16;7.40;99.90
49829;DHT22;35723;51.194;5.112;2023-04-06T04:26:41;7.40;99.90
49829;DHT22;35723;51.194;5.112;2023-04-06T04:29:07;7.40;99.90
49829;DHT22;35723;51.194;5.112;2023-04-06T04:31:33;7.40;99.90
49829;DHT22;35723;51.194;5.112;2023-04-06T04:33:59;7.40;99.90
49829;DHT22;35723;51.194;5.112;2023-04-06T04:36:25;7.40;99.90
49829;DHT22;35723;51.194;5.112;2023-04-06T04:38:52;7.40;99.90
49829;DHT22;35723;51.194;5.112;2023-04-06T04:41:18;7.50;99.90
49829;DHT22;35723;51.194;5.112;2023-04-06T04:43:44;7.50;99.90
49829;DHT22;35723;51.194;5.112;2023-04-06T04:46:09;7.50;99.90
49829;DHT22;35723;51.194;5.112;2023-04-06T04:48:35;7.50;99.90
49829;DHT22;35723;51.194;5.112;2023-04-06T04:51:01;7.50;99.90
49829;DHT22;35723;51.194;5.112;2023-04-06T04:53:27;7.60;99.90
49829;DHT22;35723;51.194;5.112;2023-04-06T04:55:52;7.60;99.90
49829;DHT22;35723;51.194;5.112;2023-04-06T04:58:18;7.50;99.90
49829;DHT22;35723;51.194;5.112;2023-04-06T05:00:45;7.50;99.90
49829;DHT22;35723;51.194;5.112;2023-04-06T05:03:21;7.50;99.90
49829;DHT22;35723;51.194;5.112;2023-04-06T05:05:47;7.60;99.90
49829;DHT22;35723;51.194;5.112;2023-04-06T05:08:13;7.60;99.90
49829;DHT22;35723;51.194;5.112;2023-04-06T05:10:39;7.60;99.90
49829;DHT22;35723;51.194;5.112;2023-04-06T05:13:04;7.60;99.90
49829;DHT22;35723;51.194;5.112;2023-04-06T05:15:31;7.60;99.90
49829;DHT22;35723;51.194;5.112;2023-04-06T05:17:56;7.60;99.90
49829;DHT22;35723;51.194;5.112;2023-04-06T05:20:22;7.60;99.90
49829;DHT22;35723;51.194;5.112;2023-04-06T05:22:48;7.60;99.90
49829;DHT22;35723;51.194;5.112;2023-04-06T05:25:14;7.70;99.90
49829;DHT22;35723;51.194;5.112;2023-04-06T05:27:40;7.60;99.90
49829;DHT22;35723;51.194;5.112;2023-04-06T05:30:07;7.60;99.90
49829;DHT22;35723;51.194;5.112;2023-04-06T05:32:33;7.60;99.90
49829;DHT22;35723;51.194;5.112;2023-04-06T05:34:59;7.70;99.90
49829;DHT22;35723;51.194;5.112;2023-04-06T05:37:25;7.60;99.90
49829;DHT22;35723;51.194;5.112;2023-04-06T05:39:51;7.70;99.90
49829;DHT22;35723;51.194;5.112;2023-04-06T05:42:16;7.60;99.90
49829;DHT22;35723;51.194;5.112;2023-04-06T05:44:42;7.70;99.90
49829;DHT22;35723;51.194;5.112;2023-04-06T05:47:08;7.70;99.90
49829;DHT22;35723;51.194;5.112;2023-04-06T05:49:34;7.70;99.90
49829;DHT22;35723;51.194;5.112;2023-04-06T05:52:00;7.70;99.90
49829;DHT22;35723;51.194;5.112;2023-04-06T05:54:26;7.70;99.90
49829;DHT22;35723;51.194;5.112;2023-04-06T05:56:52;7.60;99.90
49829;DHT22;35723;51.194;5.112;2023-04-06T05:59:17;7.70;99.90
49829;DHT22;35723;51.194;5.112;2023-04-06T06:01:43;7.70;99.90
49829;DHT22;35723;51.194;5.112;2023-04-06T06:04:09;7.70;99.90
49829;DHT22;35723;51.194;5.112;2023-04-06T06:06:35;7.70;99.90
49829;DHT22;35723;51.194;5.112;2023-04-06T06:09:01;7.70;99.90
49829;DHT22;35723;51.194;5.112;2023-04-06T06:11:28;7.70;99.90
49829;DHT22;35723;51.194;5.112;2023-04-06T06:13:55;7.70;99.90
49829;DHT22;35723;51.194;5.112;2023-04-06T06:16:21;7.80;99.90
49829;DHT22;35723;51.194;5.112;2023-04-06T06:18:46;7.70;99.90
49829;DHT22;35723;51.194;5.112;2023-04-06T06:21:12;7.70;99.90
49829;DHT22;35723;51.194;5.112;2023-04-06T06:23:38;7.70;99.90
49829;DHT22;35723;51.194;5.112;2023-04-06T06:26:04;7.80;99.90
49829;DHT22;35723;51.194;5.112;2023-04-06T06:28:30;7.80;99.90
49829;DHT22;35723;51.194;5.112;2023-04-06T06:30:56;7.80;99.90
49829;DHT22;35723;51.194;5.112;2023-04-06T06:33:22;7.80;99.90
49829;DHT22;35723;51.194;5.112;2023-04-06T06:35:48;7.80;99.90
49829;DHT22;35723;51.194;5.112;2023-04-06T06:38:14;7.80;99.90
49829;DHT22;35723;51.194;5.112;2023-04-06T06:40:40;7.90;99.90
49829;DHT22;35723;51.194;5.112;2023-04-06T06:43:06;7.90;99.90
49829;DHT22;35723;51.194;5.112;2023-04-06T06:45:32;7.90;99.90
49829;DHT22;35723;51.194;5.112;2023-04-06T06:47:57;7.90;99.90
49829;DHT22;35723;51.194;5.112;2023-04-06T06:50:23;8.00;99.90
49829;DHT22;35723;51.194;5.112;2023-04-06T06:52:49;8.00;99.90
49829;DHT22;35723;51.194;5.112;2023-04-06T06:55:15;8.00;99.90
49829;DHT22;35723;51.194;5.112;2023-04-06T06:57:40;8.00;99.90
49829;DHT22;35723;51.194;5.112;2023-04-06T07:00:08;8.10;99.90
49829;DHT22;35723;51.194;5.112;2023-04-06T07:02:35;8.20;99.90
49829;DHT22;35723;51.194;5.112;2023-04-06T07:05:03;8.20;99.90
49829;DHT22;35723;51.194;5.112;2023-04-06T07:07:31;8.30;99.90
49829;DHT22;35723;51.194;5.112;2023-04-06T07:09:57;8.30;99.90
49829;DHT22;35723;51.194;5.112;2023-04-06T07:12:22;8.40;99.90
49829;DHT22;35723;51.194;5.112;2023-04-06T07:14:48;8.50;99.90
49829;DHT22;35723;51.194;5.112;2023-04-06T07:17:14;8.50;99.90
49829;DHT22;35723;51.194;5.112;2023-04-06T07:19:39;8.50;99.90
49829;DHT22;35723;51.194;5.112;2023-04-06T07:22:06;8.50;99.90
49829;DHT22;35723;51.194;5.112;2023-04-06T07:24:31;8.50;99.90
49829;DHT22;35723;51.194;5.112;2023-04-06T07:26:58;8.50;99.90
49829;DHT22;35723;51.194;5.112;2023-04-06T07:29:24;8.60;99.90
49829;DHT22;35723;51.194;5.112;2023-04-06T07:31:49;8.50;99.90
49829;DHT22;35723;51.194;5.112;2023-04-06T07:34:15;8.60;99.90
49829;DHT22;35723;51.194;5.112;2023-04-06T07:36:41;9.00;99.90
49829;DHT22;35723;51.194;5.112;2023-04-06T07:39:07;9.40;99.90
49829;DHT22;35723;51.194;5.112;2023-04-06T07:41:33;9.40;99.90
49829;DHT22;35723;51.194;5.112;2023-04-06T07:43:58;9.40;99.90
49829;DHT22;35723;51.194;5.112;2023-04-06T07:46:24;9.00;99.90
49829;DHT22;35723;51.194;5.112;2023-04-06T07:48:50;8.70;99.90
49829;DHT22;35723;51.194;5.112;2023-04-06T07:51:16;8.60;99.90
49829;DHT22;35723;51.194;5.112;2023-04-06T07:53:44;8.50;99.90
49829;DHT22;35723;51.194;5.112;2023-04-06T07:56:10;8.50;99.90
49829;DHT22;35723;51.194;5.112;2023-04-06T07:58:35;8.50;99.90
49829;DHT22;35723;51.194;5.112;2023-04-06T08:01:02;8.50;99.90
49829;DHT22;35723;51.194;5.112;2023-04-06T08:03:27;8.60;99.90
49829;DHT22;35723;51.194;5.112;2023-04-06T08:05:53;8.80;99.90
49829;DHT22;35723;51.194;5.112;2023-04-06T08:08:19;8.80;99.90
49829;DHT22;35723;51.194;5.112;2023-04-06T08:10:47;8.80;99.90
49829;DHT22;35723;51.194;5.112;2023-04-06T08:13:13;8.90;99.90
49829;DHT22;35723;51.194;5.112;2023-04-06T08:15:39;8.90;99.90
49829;DHT22;35723;51.194;5.112;2023-04-06T08:18:05;8.90;99.90
49829;DHT22;35723;51.194;5.112;2023-04-06T08:20:31;8.90;99.90
49829;DHT22;35723;51.194;5.112;2023-04-06T08:22:56;9.00;99.90
49829;DHT22;35723;51.194;5.112;2023-04-06T08:25:22;9.10;99.90
49829;DHT22;35723;51.194;5.112;2023-04-06T08:27:48;9.10;99.90
49829;DHT22;35723;51.194;5.112;2023-04-06T08:30:13;9.20;99.90
49829;DHT22;35723;51.194;5.112;2023-04-06T08:32:41;9.60;99.90
49829;DHT22;35723;51.194;5.112;2023-04-06T08:35:07;9.30;99.90
49829;DHT22;35723;51.194;5.112;2023-04-06T08:37:33;9.20;99.90
49829;DHT22;35723;51.194;5.112;2023-04-06T08:39:59;9.20;99.90
49829;DHT22;35723;51.194;5.112;2023-04-06T08:42:26;9.20;99.90
49829;DHT22;35723;51.194;5.112;2023-04-06T08:44:51;9.30;99.90
49829;DHT22;35723;51.194;5.112;2023-04-06T08:47:18;9.30;99.90
49829;DHT22;35723;51.194;5.112;2023-04-06T08:49:45;9.30;99.90
49829;DHT22;35723;51.194;5.112;2023-04-06T08:52:11;9.40;99.90
49829;DHT22;35723;51.194;5.112;2023-04-06T08:54:38;9.50;99.90
49829;DHT22;35723;51.194;5.112;2023-04-06T08:57:04;9.50;99.90
49829;DHT22;35723;51.194;5.112;2023-04-06T08:59:31;9.30;99.90
49829;DHT22;35723;51.194;5.112;2023-04-06T09:01:57;9.40;99.90
49829;DHT22;35723;51.194;5.112;2023-04-06T09:04:24;9.50;99.90
49829;DHT22;35723;51.194;5.112;2023-04-06T09:06:51;9.60;99.90
49829;DHT22;35723;51.194;5.112;2023-04-06T09:09:17;9.60;99.90
49829;DHT22;35723;51.194;5.112;2023-04-06T09:11:45;9.70;99.90
49829;DHT22;35723;51.194;5.112;2023-04-06T09:14:11;9.50;99.90
49829;DHT22;35723;51.194;5.112;2023-04-06T09:16:45;9.50;99.90
49829;DHT22;35723;51.194;5.112;2023-04-06T09:19:11;9.50;99.90
49829;DHT22;35723;51.194;5.112;2023-04-06T09:21:38;9.60;99.90
49829;DHT22;35723;51.194;5.112;2023-04-06T09:24:06;9.60;99.90
49829;DHT22;35723;51.194;5.112;2023-04-06T09:26:32;9.70;99.90
49829;DHT22;35723;51.194;5.112;2023-04-06T09:28:59;9.70;99.90
49829;DHT22;35723;51.194;5.112;2023-04-06T09:31:35;9.60;99.90
49829;DHT22;35723;51.194;5.112;2023-04-06T09:34:02;9.80;99.90
49829;DHT22;35723;51.194;5.112;2023-04-06T09:36:36;9.70;99.90
49829;DHT22;35723;51.194;5.112;2023-04-06T09:39:05;9.70;99.90
49829;DHT22;35723;51.194;5.112;2023-04-06T09:41:35;9.70;99.90
49829;DHT22;35723;51.194;5.112;2023-04-06T09:46:31;9.90;99.90
49829;DHT22;35723;51.194;5.112;2023-04-06T09:48:58;9.90;99.90
49829;DHT22;35723;51.194;5.112;2023-04-06T09:51:24;9.90;99.90
49829;DHT22;35723;51.194;5.112;2023-04-06T09:53:53;9.90;99.90
49829;DHT22;35723;51.194;5.112;2023-04-06T09:56:24;9.90;99.90
49829;DHT22;35723;51.194;5.112;2023-04-06T09:58:57;10.00;99.90
49829;DHT22;35723;51.194;5.112;2023-04-06T10:01:28;9.90;99.90
49829;DHT22;35723;51.194;5.112;2023-04-06T10:04:01;9.90;99.90
49829;DHT22;35723;51.194;5.112;2023-04-06T10:06:32;9.90;99.90
49829;DHT22;35723;51.194;5.112;2023-04-06T10:09:02;9.90;99.90
49829;DHT22;35723;51.194;5.112;2023-04-06T10:11:30;9.90;99.90
49829;DHT22;35723;51.194;5.112;2023-04-06T10:13:56;9.90;99.90
49829;DHT22;35723;51.194;5.112;2023-04-06T10:16:22;9.90;99.90
49829;DHT22;35723;51.194;5.112;2023-04-06T10:18:54;9.90;99.90
49829;DHT22;35723;51.194;5.112;2023-04-06T10:21:24;9.80;99.90
49829;DHT22;35723;51.194;5.112;2023-04-06T10:23:54;9.80;99.90
49829;DHT22;35723;51.194;5.112;2023-04-06T10:26:21;9.70;99.90
49829;DHT22;35723;51.194;5.112;2023-04-06T10:28:49;9.80;99.90
49829;DHT22;35723;51.194;5.112;2023-04-06T10:31:24;9.80;99.90
49829;DHT22;35723;51.194;5.112;2023-04-06T10:34:02;9.90;99.90
49829;DHT22;35723;51.194;5.112;2023-04-06T10:36:33;9.90;99.90
49829;DHT22;35723;51.194;5.112;2023-04-06T10:39:00;9.80;99.90
49829;DHT22;35723;51.194;5.112;2023-04-06T10:41:35;9.80;99.90
49829;DHT22;35723;51.194;5.112;2023-04-06T10:44:02;10.00;99.90
49829;DHT22;35723;51.194;5.112;2023-04-06T10:46:30;10.00;99.90
49829;DHT22;35723;51.194;5.112;2023-04-06T10:48:56;10.00;99.90
49829;DHT22;35723;51.194;5.112;2023-04-06T10:51:27;10.00;99.90
49829;DHT22;35723;51.194;5.112;2023-04-06T10:53:54;10.10;99.90
49829;DHT22;35723;51.194;5.112;2023-04-06T10:56:24;10.10;99.90
49829;DHT22;35723;51.194;5.112;2023-04-06T10:58:54;10.10;99.90
49829;DHT22;35723;51.194;5.112;2023-04-06T11:01:24;10.10;99.90
49829;DHT22;35723;51.194;5.112;2023-04-06T11:03:56;10.10;99.90
49829;DHT22;35723;51.194;5.112;2023-04-06T11:06:26;10.10;99.90
49829;DHT22;35723;51.194;5.112;2023-04-06T11:08:53;10.10;99.90
49829;DHT22;35723;51.194;5.112;2023-04-06T11:11:20;10.10;99.90
49829;DHT22;35723;51.194;5.112;2023-04-06T11:13:51;10.20;99.90
49829;DHT22;35723;51.194;5.112;2023-04-06T11:18:57;10.30;99.90
49829;DHT22;35723;51.194;5.112;2023-04-06T11:21:35;10.30;99.90
49829;DHT22;35723;51.194;5.112;2023-04-06T11:26:48;10.20;99.90
49829;DHT22;35723;51.194;5.112;2023-04-06T11:29:20;10.20;99.90
49829;DHT22;35723;51.194;5.112;2023-04-06T11:34:17;10.30;99.90
49829;DHT22;35723;51.194;5.112;2023-04-06T11:36:45;10.30;99.90
49829;DHT22;35723;51.194;5.112;2023-04-06T11:39:12;10.30;99.90
49829;DHT22;35723;51.194;5.112;2023-04-06T11:41:38;10.30;99.90
49829;DHT22;35723;51.194;5.112;2023-04-06T11:44:05;10.20;99.90
49829;DHT22;35723;51.194;5.112;2023-04-06T11:46:31;10.20;99.90
49829;DHT22;35723;51.194;5.112;2023-04-06T11:49:02;10.20;99.90
49829;DHT22;35723;51.194;5.112;2023-04-06T11:51:28;10.30;99.90
49829;DHT22;35723;51.194;5.112;2023-04-06T11:53:54;10.30;99.90
49829;DHT22;35723;51.194;5.112;2023-04-06T11:56:28;10.30;99.90
49829;DHT22;35723;51.194;5.112;2023-04-06T11:58:55;10.30;99.90
49829;DHT22;35723;51.194;5.112;2023-04-06T12:01:22;10.40;99.90
49829;DHT22;35723;51.194;5.112;2023-04-06T12:03:47;10.30;99.90
49829;DHT22;35723;51.194;5.112;2023-04-06T12:06:13;10.30;99.90
49829;DHT22;35723;51.194;5.112;2023-04-06T12:08:40;10.20;99.90
49829;DHT22;35723;51.194;5.112;2023-04-06T12:11:06;10.20;99.90
49829;DHT22;35723;51.194;5.112;2023-04-06T12:13:31;10.20;99.90
49829;DHT22;35723;51.194;5.112;2023-04-06T12:15:57;10.00;99.90
49829;DHT22;35723;51.194;5.112;2023-04-06T12:18:22;10.00;99.90
49829;DHT22;35723;51.194;5.112;2023-04-06T12:20:48;10.10;99.90
49829;DHT22;35723;51.194;5.112;2023-04-06T12:23:14;10.10;99.90
49829;DHT22;35723;51.194;5.112;2023-04-06T12:25:40;10.20;99.90
49829;DHT22;35723;51.194;5.112;2023-04-06T12:28:06;10.20;99.90
49829;DHT22;35723;51.194;5.112;2023-04-06T12:30:32;10.20;99.90
49829;DHT22;35723;51.194;5.112;2023-04-06T12:32:58;10.10;99.90
49829;DHT22;35723;51.194;5.112;2023-04-06T12:35:23;10.10;99.90
49829;DHT22;35723;51.194;5.112;2023-04-06T12:37:49;10.10;99.90
49829;DHT22;35723;51.194;5.112;2023-04-06T12:40:15;10.20;99.90
49829;DHT22;35723;51.194;5.112;2023-04-06T12:42:40;10.20;99.90
49829;DHT22;35723;51.194;5.112;2023-04-06T12:45:08;10.10;99.90
49829;DHT22;35723;51.194;5.112;2023-04-06T12:47:34;10.20;99.90
49829;DHT22;35723;51.194;5.112;2023-04-06T12:50:01;10.20;99.90
49829;DHT22;35723;51.194;5.112;2023-04-06T12:52:27;10.20;99.90
49829;DHT22;35723;51.194;5.112;2023-04-06T12:54:56;10.20;99.90
49829;DHT22;35723;51.194;5.112;2023-04-06T12:57:21;10.20;99.90
49829;DHT22;35723;51.194;5.112;2023-04-06T12:59:47;10.20;99.90
49829;DHT22;35723;51.194;5.112;2023-04-06T13:02:13;10.10;99.90
49829;DHT22;35723;51.194;5.112;2023-04-06T13:04:39;10.20;99.90
49829;DHT22;35723;51.194;5.112;2023-04-06T13:07:04;10.20;99.90
49829;DHT22;35723;51.194;5.112;2023-04-06T13:09:30;10.20;99.90
49829;DHT22;35723;51.194;5.112;2023-04-06T13:11:56;10.20;99.90
49829;DHT22;35723;51.194;5.112;2023-04-06T13:14:22;10.10;99.90
49829;DHT22;35723;51.194;5.112;2023-04-06T13:16:47;10.10;99.90
49829;DHT22;35723;51.194;5.112;2023-04-06T13:19:13;10.10;99.90
49829;DHT22;35723;51.194;5.112;2023-04-06T13:21:39;10.10;99.90
49829;DHT22;35723;51.194;5.112;2023-04-06T13:24:05;10.10;99.90
49829;DHT22;35723;51.194;5.112;2023-04-06T13:26:31;10.10;99.90
49829;DHT22;35723;51.194;5.112;2023-04-06T13:28:56;10.10;99.90
49829;DHT22;35723;51.194;5.112;2023-04-06T13:31:22;10.20;99.90
49829;DHT22;35723;51.194;5.112;2023-04-06T13:33:48;10.20;99.90
49829;DHT22;35723;51.194;5.112;2023-04-06T13:36:13;10.20;99.90
49829;DHT22;35723;51.194;5.112;2023-04-06T13:38:40;10.20;99.90
49829;DHT22;35723;51.194;5.112;2023-04-06T13:41:06;10.30;99.90
49829;DHT22;35723;51.194;5.112;2023-04-06T13:43:31;10.20;99.90
49829;DHT22;35723;51.194;5.112;2023-04-06T13:45:57;10.10;99.90
49829;DHT22;35723;51.194;5.112;2023-04-06T13:48:25;10.10;99.90
49829;DHT22;35723;51.194;5.112;2023-04-06T13:50:53;10.40;99.90
49829;DHT22;35723;51.194;5.112;2023-04-06T13:53:19;10.30;99.90
49829;DHT22;35723;51.194;5.112;2023-04-06T13:55:52;9.80;99.90
49829;DHT22;35723;51.194;5.112;2023-04-06T13:58:18;9.60;99.90
49829;DHT22;35723;51.194;5.112;2023-04-06T14:00:44;9.50;99.90
49829;DHT22;35723;51.194;5.112;2023-04-06T14:03:10;9.60;99.90
49829;DHT22;35723;51.194;5.112;2023-04-06T14:05:35;9.70;99.90
49829;DHT22;35723;51.194;5.112;2023-04-06T14:08:01;9.60;99.90
49829;DHT22;35723;51.194;5.112;2023-04-06T14:10:27;9.70;99.90
49829;DHT22;35723;51.194;5.112;2023-04-06T14:12:53;9.80;99.90
49829;DHT22;35723;51.194;5.112;2023-04-06T14:15:18;9.90;99.90
49829;DHT22;35723;51.194;5.112;2023-04-06T14:17:44;9.90;99.90
49829;DHT22;35723;51.194;5.112;2023-04-06T14:20:10;10.00;99.90
49829;DHT22;35723;51.194;5.112;2023-04-06T14:22:40;10.10;99.90
49829;DHT22;35723;51.194;5.112;2023-04-06T14:25:07;10.20;99.90
49829;DHT22;35723;51.194;5.112;2023-04-06T14:27:32;10.10;99.90
49829;DHT22;35723;51.194;5.112;2023-04-06T14:29:58;10.10;99.90
49829;DHT22;35723;51.194;5.112;2023-04-06T14:32:24;10.20;99.90
49829;DHT22;35723;51.194;5.112;2023-04-06T14:34:51;10.20;99.90
49829;DHT22;35723;51.194;5.112;2023-04-06T14:37:16;10.20;99.90
49829;DHT22;35723;51.194;5.112;2023-04-06T14:39:43;10.30;99.90
49829;DHT22;35723;51.194;5.112;2023-04-06T14:42:08;10.30;99.90
49829;DHT22;35723;51.194;5.112;2023-04-06T14:44:34;10.40;99.90
49829;DHT22;35723;51.194;5.112;2023-04-06T14:47:02;10.30;99.90
49829;DHT22;35723;51.194;5.112;2023-04-06T14:49:29;10.40;99.90
49829;DHT22;35723;51.194;5.112;2023-04-06T14:51:55;10.40;99.90
49829;DHT22;35723;51.194;5.112;2023-04-06T14:54:21;10.30;99.90
49829;DHT22;35723;51.194;5.112;2023-04-06T14:56:46;10.30;99.90
49829;DHT22;35723;51.194;5.112;2023-04-06T14:59:12;10.30;99.90
49829;DHT22;35723;51.194;5.112;2023-04-06T15:01:37;10.30;99.90
49829;DHT22;35723;51.194;5.112;2023-04-06T15:04:03;10.30;99.90
49829;DHT22;35723;51.194;5.112;2023-04-06T15:06:29;10.30;99.90
49829;DHT22;35723;51.194;5.112;2023-04-06T15:08:55;10.40;99.90
49829;DHT22;35723;51.194;5.112;2023-04-06T15:11:21;10.40;99.90
49829;DHT22;35723;51.194;5.112;2023-04-06T15:13:47;10.40;99.90
49829;DHT22;35723;51.194;5.112;2023-04-06T15:16:12;10.40;99.90
49829;DHT22;35723;51.194;5.112;2023-04-06T15:18:39;10.30;99.90
49829;DHT22;35723;51.194;5.112;2023-04-06T15:21:05;10.20;99.90
49829;DHT22;35723;51.194;5.112;2023-04-06T15:23:32;10.30;99.90
49829;DHT22;35723;51.194;5.112;2023-04-06T15:26:00;10.30;99.90
49829;DHT22;35723;51.194;5.112;2023-04-06T15:28:26;10.30;99.90
49829;DHT22;35723;51.194;5.112;2023-04-06T15:30:53;10.40;99.90
49829;DHT22;35723;51.194;5.112;2023-04-06T15:33:20;10.40;99.90
49829;DHT22;35723;51.194;5.112;2023-04-06T15:35:46;10.40;99.90
49829;DHT22;35723;51.194;5.112;2023-04-06T15:38:12;10.40;99.90
49829;DHT22;35723;51.194;5.112;2023-04-06T15:40:47;10.30;99.90
49829;DHT22;35723;51.194;5.112;2023-04-06T15:43:14;10.30;99.90
49829;DHT22;35723;51.194;5.112;2023-04-06T15:45:40;10.30;99.90
49829;DHT22;35723;51.194;5.112;2023-04-06T15:48:06;10.30;99.90